Valley Head, AL (35989)

7:17 AM CDT on July 14, 2014 (GMT -0500)
Fischer (KALFORTP9) Elev 1552 ft | 34.48 °N, 85.61 °W | Change Station

Current weather conditions updated 14 minutes ago

Partly Cloudy
Partly Cloudy
74.2 °F
Feels Like 73 °F
N
0.0
Wind Variable Wind from SSW
Gusts 2.0 mph

Today is forecast to be Warmer than yesterday. Thunderstorms tonight.

Today
High -- | Low -- °F
--% Chance of Precip.
Yesterday
High -- | Low -- °F
Precip. -- in
5:40 AM 7:56 PM
Waning Gibbous, 94% visible
Pressure 30.05 in
Visibility 8.0 miles
Clouds Few 3400 ft
Heat Index 73 °F
Dew Point 71 °F
Humidity 89%
Rainfall 0.00 in
Snow Depth Not available.
UV 1 out of 12
Pollen 3.30 out of 12
Air Quality Not available.
Flu Activity Sporadic
METAR K4A6 141155Z AUTO 00000KT 8SM FEW034 23/22 A3005 RMK AO2

More Conditions Fewer Conditions

Pressure 30.05 in
Visibility 8.0 miles
Clouds Few 3400 ft
Heat Index 73 °F
Dew Point 71 °F
Humidity 89%
Rainfall 0.00 in
Snow Depth Not available.
UV 1 out of 12
Pollen 3.30 out of 12
Air Quality Not available.
Flu Activity Sporadic
METAR K4A6 141155Z AUTO 00000KT 8SM FEW034 23/22 A3005 RMK AO2

More Conditions Fewer Conditions

10-Day Weather Forecast

Almanac

Astronomy

Jul. 14, 2014 Rise Set
Actual Time 5:40 AM CDT 7:56 PM CDT
Civil Twilight 5:11 AM CDT 8:24 PM CDT
Nautical Twilight 4:36 AM CDT 9:00 PM CDT
Astronomical Twilight 3:57 AM CDT 9:38 PM CDT
Moon 9:35 PM CDT 8:13 AM CDT
Length of Visible Light 15h 13m
Length of Day
14h 15m
Tomorrow will be 1m 4s shorter.
Waning Gibbous, 94% of the Moon is Illuminated
Today
Waning Gibbous
Jul 18
Last Quarter
Jul 26
New
Aug 3
First Quarter
Aug 10
Full

Today's Extremes

State Highs State Lows

Community

WunderPhotos

Upload Photos

1,733,620 photos uploaded!

Nearby

Snow Depth

Station Depth Elevation
No new snow has been reported.

Earthquake Activity

City Distance Mag. Time & Date
No recent earthquake activity has been reported nearby.
Minimum magnitude displayed is 2.5.

Coastal Water Temperatures

Place Temperature
No Stations Reporting

Nearby Weather Stations

Station Location Temp. Heat Index Dew Point Humidity Wind Precip. Elev Updated Type
Fischer, Fort Payne, AL 74.2 °F 73 °F 71 °F 89% SSW  at  0.0 mph 0.00 in / hr 1552 ft 7:03 AM CDT Normal
Desoto Country Club, Fort Payne, AL 73.2 °F 70 °F 71 °F 93% WNW  at  0.0 mph - / hr 978 ft 7:08 AM CDT Normal
Rock Creek Bloodhounds, Fort Payne, AL 70.9 °F - 69 °F 93% NNW  at  0.0 mph 0.00 in / hr 1162 ft 7:17 AM CDT Rapid Fire
The Ridges, Cedar Bluff, AL 77.7 °F 80 °F 76 °F 96% North  at  0.1 mph 0.00 in / hr 639 ft 7:10 AM CDT Normal
New Salem, Rising Fawn, GA 75.2 °F 76 °F 68 °F 78% NW  at  6.0 mph 0.00 in / hr 1821 ft 8:17 AM EDT Rapid Fire
US 72 and AL 35, Scottsboro, AL 75.6 °F 74 °F 75 °F 99% North  at  0.0 mph 0.00 in / hr 650 ft 7:17 AM CDT Rapid Fire

Show More Stations Show Fewer Stations